Time;durP1;ratioP1;P1;durP2;ratioP2;P2;SDS_P1;SDS_P2;PMS_P1;PMS_P2;Temp;Humidity;BMP_temperature;BMP_pressure;BME280_temperature;BME280_humidity;BME280_pressure;Samples;Min_cycle;Max_cycle;Signal;HPM_P1;HPM_P2
2023/11/20 00:00:33;;;;;;;15.18;9.35;;;;;;;7.29;85.90;98482.47;5017145;28;20041;-67
2023/11/20 00:02:59;;;;;;;13.27;8.77;;;;;;;7.46;85.95;98522.47;5041441;28;20510;-69
2023/11/20 00:05:26;;;;;;;14.25;9.77;;;;;;;7.46;86.27;98519.06;5015524;28;20119;-68
2023/11/20 00:07:52;;;;;;;14.60;9.13;;;;;;;7.37;85.29;98528.41;5048093;28;20629;-67
2023/11/20 00:10:18;;;;;;;13.52;8.80;;;;;;;7.39;86.09;98520.53;5047104;28;20049;-68
2023/11/20 00:12:48;;;;;;;15.60;8.70;;;;;;;7.42;86.55;98523.69;5047257;28;20033;-69
2023/11/20 00:15:17;;;;;;;14.07;8.55;;;;;;;7.39;86.37;98520.53;5032225;28;20059;-69
2023/11/20 00:17:42;;;;;;;12.90;8.48;;;;;;;7.38;87.08;98514.53;5034634;28;20032;-68
2023/11/20 00:20:08;;;;;;;14.05;8.60;;;;;;;7.37;86.48;98515.47;5031512;28;20029;-68
2023/11/20 00:22:34;;;;;;;12.68;8.18;;;;;;;7.24;86.21;98481.22;5051019;28;20025;-68
2023/11/20 00:25:00;;;;;;;12.60;8.27;;;;;;;7.28;85.62;98469.69;5026777;28;20041;-69
2023/11/20 00:27:27;;;;;;;13.65;8.02;;;;;;;7.50;85.27;98499.75;5017771;28;20033;-69
2023/11/20 00:29:55;;;;;;;12.65;8.35;;;;;;;7.43;85.31;98501.19;5034975;28;20060;-69
2023/11/20 00:32:26;;;;;;;11.80;7.82;;;;;;;7.39;85.73;98498.09;5030978;28;20034;-68
2023/11/20 00:34:51;;;;;;;11.48;7.90;;;;;;;7.19;85.45;98467.84;5027767;28;20028;-68
2023/11/20 00:37:18;;;;;;;12.73;7.82;;;;;;;7.25;85.68;98503.56;5013805;28;20774;-69
2023/11/20 00:39:43;;;;;;;14.25;8.18;;;;;;;7.30;85.51;98503.97;5050244;28;20181;-68
2023/11/20 00:42:09;;;;;;;14.38;7.93;;;;;;;7.20;85.43;98506.53;5029481;28;20025;-67
2023/11/20 00:44:34;;;;;;;13.57;8.07;;;;;;;7.12;85.78;98509.75;5038501;28;20082;-68
2023/11/20 00:47:00;;;;;;;14.43;9.10;;;;;;;6.93;84.60;98494.06;5031972;28;20099;-68
2023/11/20 00:49:27;;;;;;;12.43;7.82;;;;;;;7.00;85.84;98507.34;5024856;28;20079;-68
2023/11/20 00:51:56;;;;;;;12.98;7.90;;;;;;;6.95;86.21;98507.69;5017427;28;20678;-69
2023/11/20 00:54:23;;;;;;;13.13;8.40;;;;;;;7.02;86.08;98518.38;5030386;28;20047;-68
2023/11/20 00:56:49;;;;;;;11.98;7.80;;;;;;;6.89;86.41;98503.03;5036095;28;20068;-68
2023/11/20 00:59:14;;;;;;;11.38;7.65;;;;;;;6.93;87.69;98501.81;5033122;28;20159;-66
2023/11/20 01:01:40;;;;;;;10.63;7.10;;;;;;;6.91;89.07;98503.72;5029803;28;21328;-68
2023/11/20 01:04:05;;;;;;;12.88;6.90;;;;;;;7.10;88.84;98506.47;5034693;28;20064;-68
2023/11/20 01:06:33;;;;;;;10.88;6.50;;;;;;;7.13;89.56;98498.44;5013649;28;20141;-67
2023/11/20 01:09:04;;;;;;;11.80;7.32;;;;;;;6.98;88.71;98462.69;5020054;28;20024;-68
2023/11/20 01:11:32;;;;;;;10.57;6.35;;;;;;;7.22;88.92;98488.28;5033077;28;20218;-67
2023/11/20 01:13:59;;;;;;;9.90;5.53;;;;;;;7.23;92.61;98483.00;5027755;28;20029;-68
2023/11/20 01:16:27;;;;;;;10.75;6.18;;;;;;;7.24;91.72;98474.28;5033294;28;20052;-67
2023/11/20 01:18:55;;;;;;;10.88;6.20;;;;;;;7.27;91.27;98480.97;5029959;28;20029;-67
2023/11/20 01:21:21;;;;;;;9.90;5.90;;;;;;;7.26;91.24;98477.56;5033571;28;20159;-68
2023/11/20 01:23:46;;;;;;;11.25;6.10;;;;;;;7.38;90.89;98496.44;5036770;28;20566;-69
2023/11/20 01:26:12;;;;;;;9.35;6.00;;;;;;;7.25;90.63;98452.66;5057244;28;20472;-67
2023/11/20 01:28:38;;;;;;;12.40;6.40;;;;;;;7.45;89.29;98484.63;5031671;28;20028;-68
2023/11/20 01:31:04;;;;;;;9.05;5.65;;;;;;;7.43;88.83;98478.75;5051012;28;20103;-68
2023/11/20 01:33:30;;;;;;;8.75;5.75;;;;;;;7.50;88.87;98473.88;5045391;28;20083;-69
2023/11/20 01:35:57;;;;;;;9.05;5.75;;;;;;;7.56;88.52;98486.31;5031522;28;20430;-68
2023/11/20 01:38:23;;;;;;;8.00;4.78;;;;;;;7.28;89.13;98447.25;5019123;28;20024;-68
2023/11/20 01:40:53;;;;;;;8.77;5.05;;;;;;;7.45;89.87;98484.63;5014687;28;20035;-67
2023/11/20 01:43:20;;;;;;;10.15;5.60;;;;;;;7.23;91.02;98489.94;5034299;28;20043;-68
2023/11/20 01:45:49;;;;;;;7.95;4.80;;;;;;;7.23;91.78;98477.81;5018427;28;20112;-68
2023/11/20 01:48:15;;;;;;;9.23;5.15;;;;;;;7.28;91.84;98482.59;5015488;28;20037;-69
2023/11/20 01:50:41;;;;;;;9.80;5.80;;;;;;;7.29;90.00;98489.44;5018512;28;20102;-67
2023/11/20 01:53:09;;;;;;;9.10;5.50;;;;;;;7.29;89.35;98479.09;5033522;28;20488;-69
2023/11/20 01:55:37;;;;;;;8.27;5.22;;;;;;;7.27;89.99;98483.56;5020963;28;20574;-67
2023/11/20 01:58:05;;;;;;;8.43;5.07;;;;;;;7.30;90.45;98484.13;5013222;28;20045;-68
2023/11/20 02:00:33;;;;;;;7.28;4.57;;;;;;;7.31;90.05;98477.19;5020522;28;20024;-67
2023/11/20 02:02:58;;;;;;;7.85;4.75;;;;;;;7.34;90.30;98478.69;5031773;28;20545;-66
2023/11/20 02:05:24;;;;;;;8.68;5.13;;;;;;;7.39;90.57;98461.03;5020085;28;20474;-67
2023/11/20 02:07:49;;;;;;;7.78;4.55;;;;;;;7.34;90.34;98461.44;5040120;28;20033;-68
2023/11/20 02:10:14;;;;;;;7.85;4.72;;;;;;;7.40;90.08;98470.44;5047452;28;20037;-67
2023/11/20 02:12:40;;;;;;;8.73;5.30;;;;;;;7.37;89.61;98461.16;5020903;28;20040;-68
2023/11/20 02:15:06;;;;;;;9.48;5.00;;;;;;;7.11;89.62;98415.00;5029729;28;20361;-68
2023/11/20 02:17:34;;;;;;;8.80;5.07;;;;;;;7.34;89.19;98452.81;5034591;28;20029;-69
2023/11/20 02:19:59;;;;;;;7.72;4.60;;;;;;;7.32;89.20;98451.19;5046572;28;20652;-68
2023/11/20 02:22:24;;;;;;;8.98;5.55;;;;;;;7.22;89.26;98447.72;5037453;28;20112;-67
2023/11/20 02:24:53;;;;;;;8.45;4.47;;;;;;;7.09;89.16;98406.56;5033518;28;20056;-68
2023/11/20 02:27:49;;;;;;;10.38;5.10;;;;;;;7.33;88.32;98441.66;5032636;28;20146;-67
2023/11/20 02:30:14;;;;;;;7.35;4.57;;;;;;;7.01;89.08;98418.47;5039963;28;20037;-69
2023/11/20 02:32:40;;;;;;;9.18;4.78;;;;;;;7.08;90.38;98443.72;5014344;28;20065;-69
2023/11/20 02:35:05;;;;;;;7.60;4.28;;;;;;;7.02;91.00;98441.63;5051964;28;20025;-68
2023/11/20 02:37:31;;;;;;;8.60;4.65;;;;;;;6.93;91.43;98429.44;5036756;28;20048;-68
2023/11/20 02:39:56;;;;;;;8.32;4.80;;;;;;;7.05;91.61;98443.97;5033950;28;20025;-67
2023/11/20 02:42:22;;;;;;;7.05;4.05;;;;;;;6.95;91.83;98427.56;5044678;28;20025;-68
2023/11/20 02:44:48;;;;;;;6.93;3.95;;;;;;;7.10;91.47;98425.47;5026856;28;20056;-68
2023/11/20 02:47:16;;;;;;;7.38;4.18;;;;;;;7.24;90.54;98429.50;5019375;28;20529;-68
2023/11/20 02:49:42;;;;;;;8.27;4.53;;;;;;;7.06;89.49;98418.91;5026597;28;20372;-67
2023/11/20 02:52:08;;;;;;;7.50;4.35;;;;;;;7.18;89.10;98430.03;5036851;28;20048;-68
2023/11/20 02:54:37;;;;;;;8.98;4.65;;;;;;;7.25;88.78;98437.13;5025312;28;20021;-68
2023/11/20 02:57:03;;;;;;;7.97;5.05;;;;;;;6.92;88.48;98396.81;5017861;28;20031;-68
2023/11/20 02:59:29;;;;;;;9.15;4.90;;;;;;;7.16;86.84;98424.16;5026550;28;20112;-67
2023/11/20 03:01:55;;;;;;;8.73;5.63;;;;;;;6.81;87.55;98402.03;5028912;28;20037;-68
2023/11/20 03:04:23;;;;;;;9.18;5.22;;;;;;;6.98;87.91;98436.84;5010601;28;20025;-68
2023/11/20 03:06:49;;;;;;;10.02;4.85;;;;;;;6.96;87.18;98429.22;5017974;28;20383;-69
2023/11/20 03:09:14;;;;;;;9.60;5.38;;;;;;;6.92;87.58;98427.81;5028012;28;20040;-68
2023/11/20 03:11:39;;;;;;;9.25;5.63;;;;;;;6.97;86.60;98433.41;5027014;28;20037;-69
2023/11/20 03:14:07;;;;;;;9.15;5.25;;;;;;;6.62;86.51;98423.38;5046930;28;20041;-68
2023/11/20 03:16:33;;;;;;;9.05;5.55;;;;;;;6.64;86.61;98432.63;5009748;28;20041;-68
2023/11/20 03:18:59;;;;;;;8.95;5.40;;;;;;;6.74;86.19;98425.78;5032794;28;20041;-66
2023/11/20 03:21:30;;;;;;;9.50;5.57;;;;;;;6.49;85.93;98423.56;5027058;28;20021;-68
2023/11/20 03:23:55;;;;;;;9.23;5.38;;;;;;;6.09;87.13;98369.94;5022099;28;20072;-66
2023/11/20 03:26:22;;;;;;;8.68;5.43;;;;;;;6.26;87.45;98400.41;5035466;28;20761;-68
2023/11/20 03:28:50;;;;;;;9.27;5.70;;;;;;;6.32;88.64;98415.38;5016573;28;20031;-68
2023/11/20 03:31:16;;;;;;;8.77;5.28;;;;;;;6.13;88.02;98363.56;5054705;28;20060;-65
2023/11/20 03:33:46;;;;;;;9.50;5.07;;;;;;;6.28;88.12;98364.09;5023779;28;20040;-68
2023/11/20 03:36:11;;;;;;;;;;;;;;;6.52;86.73;98411.22;5029036;28;20097;-65
2023/11/20 03:38:37;;;;;;;9.32;4.90;;;;;;;6.52;86.11;98418.16;5025561;28;20343;-67
2023/11/20 03:41:07;;;;;;;9.25;4.93;;;;;;;6.47;86.23;98422.84;5032854;28;20041;-66
2023/11/20 03:43:33;;;;;;;10.07;5.47;;;;;;;6.23;86.17;98394.66;5034723;28;20025;-66
2023/11/20 03:46:01;;;;;;;10.52;6.32;;;;;;;6.27;85.97;98408.97;5045146;28;20033;-66
2023/11/20 03:48:29;;;;;;;11.10;6.03;;;;;;;6.24;86.15;98415.19;5031604;28;20036;-67
2023/11/20 03:50:57;;;;;;;10.88;5.90;;;;;;;6.27;86.52;98414.94;5014813;28;20060;-66
2023/11/20 03:53:27;;;;;;;8.95;5.25;;;;;;;6.26;87.24;98397.81;5028654;28;20227;-66
2023/11/20 03:55:55;;;;;;;8.40;4.90;;;;;;;6.29;88.46;98405.28;5037033;28;20032;-66
2023/11/20 03:58:20;;;;;;;10.00;5.28;;;;;;;5.72;88.86;98377.97;5042260;28;20036;-67
2023/11/20 04:00:48;;;;;;;10.40;6.18;;;;;;;5.99;88.11;98433.53;5032193;28;20528;-67
2023/11/20 04:03:14;;;;;;;11.60;6.25;;;;;;;6.06;87.59;98439.84;5031400;28;21423;-67
2023/11/20 04:05:39;;;;;;;11.18;5.78;;;;;;;6.11;86.57;98446.28;5030736;28;20033;-66
2023/11/20 04:08:07;;;;;;;10.50;6.07;;;;;;;6.10;86.50;98444.66;5041405;28;20171;-66
2023/11/20 04:10:32;;;;;;;11.57;6.40;;;;;;;6.02;86.79;98428.94;5038203;28;20127;-67
2023/11/20 04:13:01;;;;;;;9.75;5.50;;;;;;;5.96;87.45;98448.31;5027726;28;20094;-66
2023/11/20 04:15:26;;;;;;;10.43;5.90;;;;;;;6.10;86.99;98454.19;5028260;28;20504;-66
2023/11/20 04:17:54;;;;;;;14.50;6.10;;;;;;;5.97;87.57;98442.22;5030584;28;20037;-67
2023/11/20 04:20:20;;;;;;;12.15;6.30;;;;;;;5.91;88.52;98450.44;5031379;28;20040;-66
2023/11/20 04:22:49;;;;;;;15.98;6.25;;;;;;;6.03;87.18;98438.34;5040697;28;20034;-66
2023/11/20 04:25:17;;;;;;;13.32;6.28;;;;;;;6.04;87.60;98434.00;5015282;28;20060;-66
2023/11/20 04:27:45;;;;;;;12.90;6.32;;;;;;;6.10;86.62;98423.22;5045940;28;20036;-67
2023/11/20 04:30:11;;;;;;;12.00;6.40;;;;;;;6.12;86.72;98429.88;5026032;28;20026;-67
2023/11/20 04:32:37;;;;;;;10.48;6.07;;;;;;;5.84;87.21;98382.19;5028937;28;20035;-67
2023/11/20 04:35:03;;;;;;;14.85;6.15;;;;;;;5.89;87.87;98420.50;5032526;28;20029;-67
2023/11/20 04:37:31;;;;;;;11.35;5.95;;;;;;;5.87;87.74;98425.78;5036436;28;20543;-67
2023/11/20 04:39:56;;;;;;;12.32;6.30;;;;;;;5.80;87.90;98419.47;5032620;28;20021;-66
2023/11/20 04:42:21;;;;;;;11.40;5.97;;;;;;;5.89;88.77;98411.00;5030023;28;20036;-67
2023/11/20 04:44:49;;;;;;;10.68;5.47;;;;;;;5.97;88.67;98410.44;5040891;28;20467;-66
2023/11/20 04:47:15;;;;;;;11.57;5.70;;;;;;;5.99;88.61;98418.03;5019807;28;20036;-66
2023/11/20 04:49:42;;;;;;;10.02;5.43;;;;;;;6.04;88.46;98427.09;5026097;28;20037;-67
2023/11/20 04:52:08;;;;;;;9.63;5.57;;;;;;;5.84;87.94;98404.56;5046186;28;20183;-65
2023/11/20 04:54:36;;;;;;;11.32;5.82;;;;;;;5.94;87.65;98421.78;5029246;28;20032;-66
2023/11/20 04:57:01;;;;;;;11.43;5.85;;;;;;;5.78;87.28;98378.28;5046629;28;20033;-67
2023/11/20 04:59:32;;;;;;;11.27;5.68;;;;;;;5.94;86.98;98408.06;5027080;28;20690;-66
2023/11/20 05:01:57;;;;;;;12.00;5.40;;;;;;;5.93;86.87;98414.16;5027501;28;20413;-67
2023/11/20 05:04:23;;;;;;;10.82;5.80;;;;;;;5.65;87.52;98413.72;5039111;28;20039;-66
2023/11/20 05:06:48;;;;;;;9.38;5.60;;;;;;;5.66;89.10;98394.75;5029416;28;20040;-67
2023/11/20 05:09:17;;;;;;;10.50;5.95;;;;;;;5.72;89.02;98404.56;5041643;28;20028;-67
2023/11/20 05:11:46;;;;;;;9.57;5.38;;;;;;;5.81;89.75;98415.13;5045468;28;20033;-67
2023/11/20 05:14:14;;;;;;;10.68;5.45;;;;;;;5.61;89.60;98398.63;5033571;28;20021;-67
2023/11/20 05:16:39;;;;;;;10.77;5.70;;;;;;;5.51;90.03;98349.50;5027301;28;20535;-66
2023/11/20 05:19:07;;;;;;;10.60;5.63;;;;;;;5.89;90.30;98398.09;5034822;28;20060;-67
2023/11/20 05:21:35;;;;;;;9.60;5.03;;;;;;;5.96;90.43;98401.88;5036873;28;20052;-67
2023/11/20 05:24:03;;;;;;;9.93;5.50;;;;;;;5.88;91.32;98396.47;5026035;28;20025;-67
2023/11/20 05:26:28;;;;;;;10.43;5.75;;;;;;;5.99;90.95;98387.91;5016169;28;20064;-66
2023/11/20 05:28:54;;;;;;;9.63;5.65;;;;;;;5.87;90.47;98350.94;5032853;28;20044;-68
2023/11/20 05:31:21;;;;;;;9.95;5.28;;;;;;;5.94;91.02;98359.03;5032105;28;21498;-67
2023/11/20 05:33:46;;;;;;;8.75;4.90;;;;;;;6.19;91.29;98404.41;5027762;28;20032;-67
2023/11/20 05:36:12;;;;;;;11.60;5.45;;;;;;;6.01;91.66;98357.63;5030725;28;21296;-67
2023/11/20 05:38:37;;;;;;;9.45;5.28;;;;;;;6.29;92.06;98404.47;5026700;28;20033;-67
2023/11/20 05:41:06;;;;;;;9.50;5.18;;;;;;;6.33;92.44;98417.03;5034248;28;20033;-68
2023/11/20 05:43:34;;;;;;;12.02;5.25;;;;;;;6.32;92.01;98404.25;5025781;28;20028;-67
2023/11/20 05:45:59;;;;;;;11.25;5.32;;;;;;;6.06;92.58;98380.50;5028958;28;21519;-66
2023/11/20 05:48:27;;;;;;;9.27;5.00;;;;;;;6.28;93.54;98400.25;5032474;28;20098;-66
2023/11/20 05:50:52;;;;;;;10.85;5.50;;;;;;;6.32;93.17;98419.75;5032372;28;20128;-67
2023/11/20 05:53:20;;;;;;;10.93;5.75;;;;;;;6.18;92.50;98401.94;5011914;28;20055;-66
2023/11/20 05:55:47;;;;;;;9.63;5.82;;;;;;;6.12;92.03;98411.00;5016541;28;20033;-66
2023/11/20 05:58:12;;;;;;;11.07;5.60;;;;;;;6.12;91.67;98405.84;5031338;28;20672;-66
2023/11/20 06:00:40;;;;;;;10.60;5.50;;;;;;;5.99;91.38;98398.25;5015129;28;20033;-67
2023/11/20 06:03:06;;;;;;;9.75;5.63;;;;;;;6.09;91.23;98403.50;5022966;28;20262;-68
2023/11/20 06:05:31;;;;;;;10.63;6.47;;;;;;;6.06;90.42;98398.56;5025754;28;20055;-67
2023/11/20 06:07:59;;;;;;;11.95;6.43;;;;;;;6.07;89.70;98395.84;5030673;28;20033;-68
2023/11/20 06:10:24;;;;;;;15.18;6.38;;;;;;;6.21;89.51;98397.34;5008225;28;20030;-68
2023/11/20 06:12:51;;;;;;;15.93;6.30;;;;;;;6.27;89.03;98411.53;5016203;28;20570;-68
2023/11/20 06:15:17;;;;;;;13.57;6.75;;;;;;;6.14;88.27;98409.13;5024537;28;20028;-68
2023/11/20 06:17:42;;;;;;;12.40;6.20;;;;;;;6.17;87.55;98411.47;5044907;28;20900;-67
2023/11/20 06:20:08;;;;;;;13.25;5.78;;;;;;;6.10;88.25;98411.13;5021773;28;20033;-67
2023/11/20 06:22:35;;;;;;;12.20;5.60;;;;;;;6.11;88.07;98405.00;5012018;28;20029;-68
2023/11/20 06:25:00;;;;;;;12.02;6.05;;;;;;;6.05;88.30;98376.28;5028740;28;20021;-66
2023/11/20 06:27:25;;;;;;;15.55;5.38;;;;;;;5.86;88.53;98385.44;5017593;28;20040;-67
2023/11/20 06:29:53;;;;;;;16.80;5.40;;;;;;;5.92;88.39;98390.13;5027039;28;20412;-66
2023/11/20 06:32:21;;;;;;;10.52;6.15;;;;;;;5.97;88.12;98384.66;5011534;28;20069;-66
2023/11/20 06:34:47;;;;;;;15.45;5.93;;;;;;;5.89;88.68;98397.28;5018860;28;20025;-67
2023/11/20 06:37:12;;;;;;;18.65;6.13;;;;;;;5.67;90.07;98380.06;5031469;28;20037;-67
2023/11/20 06:39:41;;;;;;;13.05;5.97;;;;;;;5.79;90.93;98399.78;5031150;28;20147;-65
2023/11/20 06:42:06;;;;;;;12.68;5.72;;;;;;;5.38;91.45;98368.50;5042965;28;20356;-66
2023/11/20 06:44:32;;;;;;;10.38;5.30;;;;;;;5.71;91.97;98390.06;5031258;28;20055;-69
2023/11/20 06:46:59;;;;;;;12.75;6.38;;;;;;;5.63;91.59;98400.13;5026264;28;20114;-68
2023/11/20 06:49:27;;;;;;;9.65;5.38;;;;;;;5.75;91.18;98391.44;5024032;28;21521;-68
2023/11/20 06:51:55;;;;;;;9.43;5.03;;;;;;;5.83;91.98;98390.84;5011926;28;20052;-68
2023/11/20 06:54:20;;;;;;;13.30;5.68;;;;;;;5.88;91.17;98404.22;5024274;28;20064;-67
2023/11/20 06:56:46;;;;;;;11.95;5.53;;;;;;;5.99;90.40;98418.88;5025887;28;20107;-67
2023/11/20 06:59:11;;;;;;;14.05;5.45;;;;;;;5.67;90.72;98372.34;5014347;28;20036;-67
2023/11/20 07:01:45;;;;;;;11.00;5.75;;;;;;;5.93;90.40;98420.16;5013662;28;20025;-67
2023/11/20 07:04:18;;;;;;;10.57;5.50;;;;;;;5.99;90.03;98418.03;5028400;28;20130;-68
2023/11/20 07:06:47;;;;;;;12.30;5.68;;;;;;;6.01;90.09;98419.59;5034214;28;20060;-67
2023/11/20 07:09:14;;;;;;;13.85;6.40;;;;;;;5.74;89.48;98383.81;5031565;28;20120;-67
2023/11/20 07:11:42;;;;;;;14.55;7.00;;;;;;;5.70;89.39;98388.41;5046644;28;20087;-67
2023/11/20 07:14:11;;;;;;;12.88;7.45;;;;;;;5.92;90.17;98423.66;5034252;28;20024;-68
2023/11/20 07:16:37;;;;;;;12.85;6.75;;;;;;;6.00;90.61;98420.50;5032496;28;20651;-67
2023/11/20 07:19:04;;;;;;;12.68;6.70;;;;;;;5.85;91.07;98403.63;5016665;28;20032;-69
2023/11/20 07:21:29;;;;;;;13.30;6.80;;;;;;;5.57;90.99;98391.09;5016099;28;20069;-67
2023/11/20 07:23:57;;;;;;;13.23;7.25;;;;;;;5.76;89.67;98397.41;5014423;28;20585;-66
2023/11/20 07:26:25;;;;;;;13.30;7.53;;;;;;;5.91;89.93;98424.63;5030637;28;20206;-67
2023/11/20 07:28:51;;;;;;;17.48;7.40;;;;;;;5.75;90.76;98424.19;5032518;28;20056;-68
2023/11/20 07:31:26;;;;;;;11.82;6.57;;;;;;;5.53;91.08;98407.75;5026328;28;20742;-68
2023/11/20 07:33:54;;;;;;;13.93;6.70;;;;;;;5.51;89.87;98367.53;5021393;28;20032;-68
2023/11/20 07:36:20;;;;;;;13.68;6.97;;;;;;;5.77;88.87;98397.31;5043780;28;20029;-67
2023/11/20 07:38:47;;;;;;;13.55;6.43;;;;;;;5.82;88.86;98385.78;5030848;28;20856;-67
2023/11/20 07:41:14;;;;;;;15.07;6.22;;;;;;;6.00;88.85;98417.94;5006038;28;20025;-68
2023/11/20 07:43:40;;;;;;;13.85;6.57;;;;;;;5.74;87.86;98376.09;5020402;28;20809;-68
2023/11/20 07:46:06;;;;;;;12.77;6.45;;;;;;;5.97;88.60;98425.94;5030992;28;20048;-67
2023/11/20 07:48:35;;;;;;;12.68;6.35;;;;;;;6.08;89.04;98427.69;5017968;28;20032;-66
2023/11/20 07:51:01;;;;;;;14.35;7.10;;;;;;;5.76;88.98;98377.59;5009625;28;20660;-68
2023/11/20 07:53:26;;;;;;;12.90;6.88;;;;;;;6.05;89.68;98413.22;5030581;28;20053;-68
2023/11/20 07:55:52;;;;;;;16.92;6.20;;;;;;;5.94;89.09;98377.09;5044411;28;20033;-67
2023/11/20 07:58:18;;;;;;;15.57;7.00;;;;;;;6.05;89.04;98427.91;5015375;28;20048;-67
2023/11/20 08:00:45;;;;;;;17.50;7.03;;;;;;;5.95;89.88;98425.19;5047221;28;20040;-67
2023/11/20 08:03:11;;;;;;;16.95;6.93;;;;;;;5.76;89.08;98380.16;5040575;28;20033;-67
2023/11/20 08:05:40;;;;;;;14.25;6.90;;;;;;;5.93;90.51;98417.59;5031773;28;20037;-67
2023/11/20 08:08:07;;;;;;;12.77;6.40;;;;;;;5.83;90.69;98419.22;5029489;28;20025;-68
2023/11/20 08:10:33;;;;;;;15.48;7.18;;;;;;;5.87;90.06;98417.22;5033608;28;20036;-67
2023/11/20 08:13:01;;;;;;;15.73;6.82;;;;;;;5.73;90.77;98366.69;5010991;28;20036;-67
2023/11/20 08:15:28;;;;;;;14.70;6.80;;;;;;;5.97;91.66;98405.28;5031886;28;20030;-67
2023/11/20 08:17:56;;;;;;;11.93;6.40;;;;;;;6.07;92.06;98411.34;5036077;28;20684;-67
2023/11/20 08:20:22;;;;;;;10.75;6.07;;;;;;;6.20;92.29;98416.34;5030238;28;20036;-68
2023/11/20 08:22:49;;;;;;;11.95;6.35;;;;;;;6.24;92.19;98406.59;5046113;28;20032;-64
2023/11/20 08:25:15;;;;;;;15.60;6.20;;;;;;;6.21;92.74;98396.53;5034262;28;20033;-68
2023/11/20 08:27:41;;;;;;;12.10;5.70;;;;;;;6.39;91.07;98420.91;5026043;28;20095;-69
2023/11/20 08:30:08;;;;;;;10.27;5.43;;;;;;;6.09;92.68;98424.94;5024348;28;20060;-69
2023/11/20 08:32:34;;;;;;;17.15;6.75;;;;;;;6.21;93.96;98415.44;5043282;28;20036;-69
2023/11/20 08:35:01;;;;;;;12.35;5.65;;;;;;;6.13;94.92;98400.56;5030658;28;20016;-68
2023/11/20 08:37:27;;;;;;;11.60;5.88;;;;;;;6.32;97.82;98405.06;5047546;28;20941;-69
2023/11/20 08:39:55;;;;;;;12.30;6.40;;;;;;;6.43;95.69;98391.28;5030607;28;20036;-70
2023/11/20 08:42:22;;;;;;;13.77;6.38;;;;;;;6.50;95.21;98391.63;5045717;28;20110;-69
2023/11/20 08:44:49;;;;;;;11.75;6.07;;;;;;;6.58;94.33;98393.59;5032169;28;20032;-68
2023/11/20 08:47:14;;;;;;;14.07;6.55;;;;;;;6.47;94.93;98384.94;5016158;28;20025;-68
2023/11/20 08:49:42;;;;;;;12.48;6.13;;;;;;;6.58;94.72;98399.56;5023176;28;20025;-68
2023/11/20 08:52:07;;;;;;;12.07;5.90;;;;;;;6.63;94.38;98399.19;5032517;28;20080;-67
2023/11/20 08:54:35;;;;;;;11.57;6.28;;;;;;;6.68;93.76;98390.13;5032982;28;20115;-69
2023/11/20 08:57:01;;;;;;;11.13;5.57;;;;;;;6.61;95.15;98393.31;5006965;28;20472;-68
2023/11/20 08:59:26;;;;;;;13.82;6.25;;;;;;;6.51;94.62;98398.41;5034818;28;20017;-69
2023/11/20 09:01:56;;;;;;;11.23;5.85;;;;;;;6.28;95.59;98388.19;5007663;28;20029;-69
2023/11/20 09:04:26;;;;;;;13.68;5.88;;;;;;;6.40;97.25;98399.28;5035491;28;20040;-69
2023/11/20 09:06:51;;;;;;;10.23;6.30;;;;;;;6.54;98.29;98398.19;5028641;28;20056;-70
2023/11/20 09:09:19;;;;;;;11.55;5.93;;;;;;;6.63;97.79;98397.44;5032658;28;20117;-68
2023/11/20 09:11:47;;;;;;;13.13;6.20;;;;;;;6.79;96.91;98386.66;5011085;28;20032;-68
2023/11/20 09:14:14;;;;;;;12.95;5.60;;;;;;;6.87;96.88;98393.78;5028007;28;20033;-68
2023/11/20 09:16:39;;;;;;;10.52;5.82;;;;;;;6.90;96.89;98388.38;5031424;28;20043;-69
2023/11/20 09:19:07;;;;;;;12.73;6.30;;;;;;;6.78;96.80;98384.19;5017821;28;20392;-69
2023/11/20 09:21:33;;;;;;;9.60;4.57;;;;;;;6.74;98.02;98371.53;5023127;28;21365;-69
2023/11/20 09:23:58;;;;;;;12.93;5.13;;;;;;;6.72;98.23;98360.50;5025315;28;20033;-70
2023/11/20 09:26:24;;;;;;;11.80;5.95;;;;;;;6.66;98.35;98332.59;5042589;28;20045;-70
2023/11/20 09:28:49;;;;;;;9.48;5.07;;;;;;;6.94;98.27;98358.72;5034813;28;20130;-70
2023/11/20 09:31:17;;;;;;;8.05;5.22;;;;;;;6.95;98.66;98377.63;5011537;28;20476;-69
2023/11/20 09:33:43;;;;;;;9.30;4.95;;;;;;;6.77;98.28;98346.38;5012713;28;20045;-69
2023/11/20 09:36:10;;;;;;;15.32;4.82;;;;;;;7.09;96.82;98385.88;5025516;28;20105;-69
2023/11/20 09:38:36;;;;;;;9.52;4.88;;;;;;;6.88;97.16;98348.88;5028192;28;20035;-68
2023/11/20 09:41:01;;;;;;;8.30;4.40;;;;;;;7.13;95.69;98378.69;5043690;28;20029;-69
2023/11/20 09:43:31;;;;;;;8.27;3.97;;;;;;;7.19;94.52;98370.44;5010398;28;20025;-68
2023/11/20 09:46:06;;;;;;;9.13;4.40;;;;;;;7.32;95.21;98372.78;5027482;28;20064;-69
2023/11/20 09:48:36;;;;;;;7.85;4.07;;;;;;;7.24;93.50;98375.19;5037668;28;20029;-69
2023/11/20 09:51:02;;;;;;;;;;;;;;;7.24;93.14;98342.38;5024600;28;20033;-67
2023/11/20 09:53:35;;;;;;;10.00;4.28;;;;;;;7.47;91.88;98368.91;5025804;28;19927;-69
2023/11/20 09:56:03;;;;;;;7.97;3.53;;;;;;;7.23;89.31;98314.09;5011814;28;20033;-69
2023/11/20 09:58:30;;;;;;;7.40;2.60;;;;;;;7.64;88.07;98353.69;5012482;28;20032;-69
2023/11/20 10:01:10;;;;;;;5.93;2.90;;;;;;;7.78;87.04;98350.72;5027236;28;20343;-68
2023/11/20 10:03:42;;;;;;;5.22;2.63;;;;;;;8.01;83.16;98350.50;5016918;28;21315;-69
2023/11/20 10:06:10;;;;;;;7.60;3.28;;;;;;;7.87;82.64;98303.34;5010761;28;20028;-68
2023/11/20 10:08:36;;;;;;;9.52;3.95;;;;;;;8.27;81.20;98328.28;5029851;28;20033;-69
2023/11/20 10:11:04;;;;;;;6.80;3.13;;;;;;;8.43;78.42;98325.19;5012308;28;20798;-70
2023/11/20 10:13:30;;;;;;;7.63;4.47;;;;;;;8.56;74.36;98314.53;5022964;28;20029;-70
2023/11/20 10:15:59;;;;;;;7.30;3.47;;;;;;;8.79;73.53;98309.00;5029894;28;20037;-69
2023/11/20 10:18:26;;;;;;;5.63;2.63;;;;;;;8.70;74.51;98273.56;5027217;28;20112;-72
2023/11/20 10:20:52;;;;;;;6.55;2.40;;;;;;;8.90;79.72;98295.88;5029193;28;20035;-68
2023/11/20 10:23:23;;;;;;;5.43;2.38;;;;;;;8.92;80.35;98293.94;5025990;28;20088;-71
2023/11/20 10:25:48;;;;;;;6.22;2.60;;;;;;;8.83;76.44;98287.03;5030780;28;20040;-71
2023/11/20 10:28:14;;;;;;;4.82;2.15;;;;;;;8.93;77.17;98274.84;5028340;28;20025;-69
2023/11/20 10:30:49;;;;;;;5.88;2.20;;;;;;;9.04;74.50;98285.03;5023466;28;20044;-68
2023/11/20 10:33:18;;;;;;;5.25;2.10;;;;;;;8.98;72.68;98256.25;5029759;28;20040;-68
2023/11/20 10:35:44;;;;;;;;;;;;;;;9.33;73.63;98265.94;5032814;28;20106;-68
2023/11/20 10:38:11;;;;;;;6.65;3.53;;;;;;;9.21;74.64;98234.16;5031969;28;19920;-69
2023/11/20 10:40:41;;;;;;;5.78;2.60;;;;;;;9.53;71.31;98269.22;5045648;28;20127;-70
2023/11/20 10:43:07;;;;;;;4.88;2.25;;;;;;;9.67;72.55;98280.88;5018164;28;21512;-69
2023/11/20 10:45:33;;;;;;;6.20;2.72;;;;;;;9.75;72.62;98260.19;5030583;28;20040;-69
2023/11/20 10:47:59;;;;;;;6.70;2.40;;;;;;;9.79;71.22;98269.31;5027526;28;20033;-69
2023/11/20 10:50:27;;;;;;;6.53;2.38;;;;;;;9.81;69.07;98262.19;5047080;28;20033;-67
2023/11/20 10:53:00;;;;;;;5.88;2.17;;;;;;;9.99;70.43;98251.81;5027668;28;20073;-67
2023/11/20 10:55:32;;;;;;;5.13;2.10;;;;;;;10.10;71.75;98258.56;5045324;28;20021;-69
2023/11/20 10:58:01;;;;;;;6.38;2.70;;;;;;;10.24;73.58;98246.81;5027524;28;20396;-71
2023/11/20 11:00:26;;;;;;;5.53;2.40;;;;;;;10.15;72.73;98251.13;5047394;28;20135;-68
2023/11/20 11:02:53;;;;;;;7.75;3.50;;;;;;;10.12;75.31;98233.22;5031816;28;20718;-67
2023/11/20 11:05:22;;;;;;;5.80;3.00;;;;;;;10.10;79.01;98242.97;5046061;28;20020;-67
2023/11/20 11:07:48;;;;;;;9.63;3.60;;;;;;;10.09;79.13;98230.13;5031368;28;20040;-68
2023/11/20 11:10:14;;;;;;;8.73;4.00;;;;;;;10.13;78.94;98229.69;5033018;28;20048;-68
2023/11/20 11:12:44;;;;;;;6.43;3.88;;;;;;;10.37;78.32;98223.88;5051497;28;20037;-68
2023/11/20 11:15:13;;;;;;;7.22;3.72;;;;;;;10.47;75.94;98225.53;5032459;28;20112;-67
2023/11/20 11:17:51;;;;;;;7.82;3.88;;;;;;;10.49;74.01;98208.81;5007662;28;20041;-68
2023/11/20 11:20:23;;;;;;;8.00;3.88;;;;;;;10.38;73.50;98170.09;5032485;28;20115;-67
2023/11/20 11:22:59;;;;;;;7.10;3.33;;;;;;;10.66;69.78;98207.13;5029352;28;21306;-64
2023/11/20 11:25:27;;;;;;;7.55;3.63;;;;;;;10.67;68.79;98208.75;5026666;28;20136;-67
2023/11/20 11:27:59;;;;;;;6.38;3.17;;;;;;;10.80;65.59;98205.72;5026634;28;20041;-68
2023/11/20 11:30:25;;;;;;;8.13;3.40;;;;;;;10.81;66.75;98196.16;5025829;28;20021;-64
2023/11/20 11:33:03;;;;;;;7.38;3.65;;;;;;;10.84;70.81;98164.63;5009446;28;20074;-68
2023/11/20 11:35:37;;;;;;;6.25;3.22;;;;;;;11.08;67.24;98187.28;5026803;28;20033;-68